CheckWX is a tool to help pilots better visualize weather data.  It is not intended as a substitute for an official pre-flight weather briefing.

21:24:56 UTC

KJAS METAR
Jasper County-Bell Field Airport
Jasper, Texas, USA
Current

10 mins ago

KJAS 232115Z AUTO 15004KT 7SM SCT044 SCT060 31/22 A3006 RMK AO2 T03140224
Observed
May-23 @ 21:15 UTC
Wind
  • 150° at 4 KTS
Visibility
7 SM
Flight Rules
VFR
Cloud Levels
  • Scattered at 4,400' AGL
  • Scattered at 6,000' AGL
Temperature
31°C / 88°F
Dewpoint
22°C / 72°F
Heat Index
35°C / 95°F
Humidity
59%
Altimeter
30.06" Hg
Pressure
1017.92 hPa
Previous

30 mins ago

KJAS 232055Z AUTO 13007KT 100V180 5SM HZ SCT041 BKN047 BKN060 32/23 A3006 RMK AO2 T03180225
Observed
May-23 @ 20:55 UTC
Wind
  • 130° at 7 KTS
Visibility
5 SM
Flight Rules
MVFR
Conditions
Haze
Cloud Levels
  • Scattered at 4,100' AGL
  • Broken at 4,700' AGL
  • Broken at 6,000' AGL
Temperature
32°C / 90°F
Dewpoint
23°C / 73°F
Heat Index
37°C / 99°F
Humidity
59%
Altimeter
30.06" Hg
Pressure
1017.92 hPa
Previous

50 mins ago

KJAS 232035Z AUTO 15004KT 4SM HZ SCT043 SCT075 32/22 A3007 RMK AO2 T03190218
Observed
May-23 @ 20:35 UTC
Wind
  • 150° at 4 KTS
Visibility
4 SM
Flight Rules
MVFR
Conditions
Haze
Cloud Levels
  • Scattered at 4,300' AGL
  • Scattered at 7,500' AGL
Temperature
32°C / 90°F
Dewpoint
22°C / 72°F
Heat Index
36°C / 97°F
Humidity
55%
Altimeter
30.07" Hg
Pressure
1018.32 hPa